• Join FlightAware (Why Join?)
  • Login
  • US Flag 
07:18PM EDT


 

Airport Tracker/Info


-or-


 

Live Flight TrackerFlight Track Log ✈ DAL1733 ✈ 16-Jul-2013 ✈ KATL - KLIT

Flight Track Log - Related Links

Times and Time Zones

All times are in EDT time to prevent confusion due to time zone crossing. See the DAL1733 flight status page for this flight to view local times or setup timezone preferences in your user account.

Time Position Orientation Groundspeed Altitude Reporting Facility
EDT Latitude Longitude Course Direction KTS MPH feet Rate Location/Type
10:36AM 33.6500 -84.3833 252° West 159 183 2,600  Level Atlanta TRACON
10:38AM 33.6667 -84.3167 73° East 229 264 4,500 2,400 Climbing Atlanta TRACON
10:38AM 33.7333 -84.2833 23° Northeast 283 326 7,400 3,120 Climbing Atlanta TRACON
10:39AM 33.8001 -84.3957 270° West  Level FlightAware Approximate
10:39AM 33.8000 -84.3000 348° North 302 348 10,500  Level Atlanta TRACON
10:40AM 33.8000 -84.5441 270° West  Level FlightAware Approximate
10:40AM 33.8167 -84.4167 280° West 364 419 11,900  Level Atlanta TRACON
10:41AM 33.7802 -84.6886 252° West  Level FlightAware Approximate
10:41AM 33.8167 -84.5333 270° West 382 440 14,000  Level Atlanta TRACON
10:42AM 33.7413 -84.8293 252° West  Level FlightAware Approximate
10:42AM 33.7833 -84.6667 253° West 387 445 14,000  Level Atlanta TRACON
10:44AM 33.7350 -84.8856 255° West 412 474 15,000 1,200 Climbing Atlanta Center
10:45AM 33.7047 -85.0178 255° West 402 463 17,300 2,040 Climbing Atlanta Center
10:46AM 33.6703 -85.1494 253° West 414 476 19,100 1,860 Climbing Atlanta Center
10:47AM 33.6503 -85.2892 260° West 425 489 21,100 1,860 Climbing Atlanta Center
10:48AM 33.6528 -85.4364 271° West 439 505 22,900 1,680 Climbing Atlanta Center
10:49AM 33.6550 -85.5911 271° West 455 524 24,500 1,380 Climbing Atlanta Center
10:50AM 33.6594 -85.7308 272° West 466 536 25,700 1,200 Climbing Atlanta Center
10:51AM 33.6614 -85.8883 271° West 471 542 27,000 1,200 Climbing Atlanta Center
10:52AM 33.6608 -86.0528 270° West 482 555 28,200 1,200 Climbing Atlanta Center
10:53AM 33.6644 -86.2203 272° West 494 568 29,500 1,440 Climbing Atlanta Center
10:54AM 33.6656 -86.3850 271° West 500 575 31,100 1,200 Climbing Atlanta Center
10:55AM 33.6664 -86.5497 270° West 500 575 32,000 420 Climbing Atlanta Center
10:56AM 33.6672 -86.7144 270° West 495 570 32,000  Level Atlanta Center
10:57AM 33.6697 -86.8744 271° West 495 570 32,000 3,000 Level Atlanta Center
10:58AM 33.6722 -87.0367 271° West 490 564 38,000 540 Climbing Atlanta Center
10:59AM 33.6744 -87.1989 271° West 490 564 33,100 -360 Descending Atlanta Center
11:03AM 33.6778 -87.7436 271° West 480 552 36,600 1,020 Climbing Memphis Center
11:04AM 33.6933 -87.9006 277° West 474 545 37,600 660 Climbing Memphis Center
11:05AM 33.7214 -88.0519 283° West 474 545 38,000 180 Climbing Memphis Center
11:06AM 33.7492 -88.2011 283° West 474 545 38,000  Level Memphis Center
11:07AM 33.7744 -88.3531 281° West 467 537 38,000  Level Memphis Center
11:08AM 33.8019 -88.5025 283° West 467 537 38,000  Level Memphis Center
11:09AM 33.8292 -88.6492 283° West 467 537 38,000  Level Memphis Center
11:10AM 33.8561 -88.7964 282° West 462 532 38,000  Level Memphis Center
11:11AM 33.8786 -88.9361 281° West 445 512 38,000  Level Memphis Center
11:12AM 33.9031 -89.0658 283° West 445 512 38,000  Level Memphis Center
11:13AM 33.9272 -89.2081 282° West 445 512 38,000 -300 Level Memphis Center
11:14AM 33.9517 -89.3581 281° West 450 518 37,400 -840 Descending Memphis Center
11:15AM 33.9778 -89.5031 282° West 449 517 36,400 -1,020 Descending Memphis Center
11:16AM 34.0036 -89.6531 282° West 449 517 35,400 -1,020 Descending Memphis Center
11:17AM 34.0297 -89.8183 281° West 455 524 34,400 -1,020 Descending Memphis Center
11:18AM 34.0553 -89.9711 281° West 467 537 33,400 -1,020 Descending Memphis Center
11:19AM 34.0806 -90.1239 281° West 467 537 32,400 -1,020 Descending Memphis Center
11:20AM 34.1081 -90.2819 282° West 467 537 31,400 -1,020 Descending Memphis Center
11:21AM 34.1350 -90.4400 282° West 478 550 30,400 -1,560 Descending Memphis Center
11:22AM 34.1600 -90.5981 281° West 483 556 28,300 -2,700 Descending Memphis Center
11:23AM 34.1847 -90.7564 281° West 483 556 25,100 -2,820 Descending Memphis Center
11:24AM 34.2050 -90.8947 280° West 483 556 22,700 -2,700 Descending Memphis Center
11:25AM 34.2272 -91.0406 280° West 459 528 19,800 -2,700 Descending Memphis Center
11:26AM 34.2514 -91.1814 282° West 447 514 17,400 -2,580 Descending Memphis Center
11:27AM 34.2756 -91.3225 282° West 429 494 14,700 -2,700 Descending Memphis Center
11:28AM 34.2972 -91.4811 279° West 404 465 11,800 -2,100 Descending Memphis Center
11:29AM 34.3275 -91.5894 289° West 410 472 10,600 -1,140 Descending Memphis Center
11:30AM 34.3783 -91.6958 300° West 312 359 9,600 -1,140 Descending Memphis Center
11:31AM 34.4194 -91.7747 302° West 333 383 8,400 -1,500 Descending Memphis Center
11:32AM 34.4600 -91.8583 300° West 307 353 6,800 -1,500 Descending Memphis Center
11:33AM 34.4986 -91.9447 298° West 294 338 5,400 -1,200 Descending Memphis Center
11:34AM 34.5394 -92.0264 301° West 289 333 4,500 -1,200 Descending Memphis Center
11:35AM 34.5758 -92.1078 299° West 284 327 3,000 -780 Descending Memphis Center
11:36AM 34.6081 -92.1764 300° West 267 307 3,000 -60 Level Memphis Center
11:37AM 34.6197 -92.2447 282° West 230 265 2,900 -120 Descending Memphis Center